Time;durP1;ratioP1;P1;durP2;ratioP2;P2;SDS_P1;SDS_P2;PMS_P1;PMS_P2;Temp;Humidity;BMP_temperature;BMP_pressure;BME280_temperature;BME280_humidity;BME280_pressure;Samples;Min_cycle;Max_cycle;Signal;HPM_P1;HPM_P2
2021/01/12 00:00:25;;;;;;;4.50;2.38;;;21.00;19.80;;;;;;5084059;28;20437;-55
2021/01/12 00:02:52;;;;;;;5.10;2.80;;;20.90;19.50;;;;;;5087298;28;20091;-57
2021/01/12 00:05:20;;;;;;;7.03;3.40;;;20.80;19.60;;;;;;5083012;28;20083;-58
2021/01/12 00:07:47;;;;;;;8.20;3.38;;;20.70;19.80;;;;;;5067987;28;20525;-55
2021/01/12 00:10:14;;;;;;;8.40;3.95;;;20.60;20.30;;;;;;5078016;28;20164;-61
2021/01/12 00:12:40;;;;;;;6.95;3.40;;;20.50;20.40;;;;;;5081361;28;20106;-57
2021/01/12 00:15:08;;;;;;;10.25;4.20;;;20.50;20.40;;;;;;5084055;28;20085;-59
2021/01/12 00:17:36;;;;;;;8.80;4.25;;;20.40;20.60;;;;;;5070077;28;20091;-59
2021/01/12 00:20:08;;;;;;;8.38;4.35;;;20.20;20.90;;;;;;5083942;28;20151;-58
2021/01/12 00:22:34;;;;;;;9.77;5.70;;;20.20;20.60;;;;;;5088568;28;20072;-55
2021/01/12 00:25:01;;;;;;;17.25;6.75;;;20.00;21.00;;;;;;5087452;28;20098;-54
2021/01/12 00:27:28;;;;;;;12.38;6.53;;;20.00;21.40;;;;;;5086853;28;20081;-55
2021/01/12 00:29:55;;;;;;;16.08;7.32;;;19.90;22.20;;;;;;5084199;28;20115;-55
2021/01/12 00:32:26;;;;;;;14.20;7.15;;;19.80;23.00;;;;;;5062083;28;20084;-54
2021/01/12 00:34:53;;;;;;;20.77;7.55;;;19.70;23.70;;;;;;5064255;28;20577;-55
2021/01/12 00:37:20;;;;;;;14.60;7.55;;;19.60;23.80;;;;;;5085104;28;20111;-53
2021/01/12 00:39:47;;;;;;;15.98;6.82;;;19.50;23.40;;;;;;5085638;28;20077;-58
2021/01/12 00:42:14;;;;;;;23.02;7.68;;;19.40;24.00;;;;;;5084555;28;20115;-58
2021/01/12 00:44:41;;;;;;;23.42;7.72;;;19.20;24.40;;;;;;5084932;28;20489;-57
2021/01/12 00:47:08;;;;;;;21.00;7.93;;;19.00;24.70;;;;;;5064071;28;20156;-57
2021/01/12 00:49:35;;;;;;;20.60;7.00;;;18.90;24.90;;;;;;5083602;28;20099;-57
2021/01/12 00:52:01;;;;;;;21.83;9.23;;;18.80;24.30;;;;;;5086673;28;20073;-57
2021/01/12 00:54:28;;;;;;;24.50;9.70;;;18.60;24.20;;;;;;5083969;28;20065;-59
2021/01/12 00:56:54;;;;;;;;;;;18.50;24.80;;;;;;5086162;28;20584;-59
2021/01/12 00:59:21;;;;;;;61.10;12.00;;;18.30;25.80;;;;;;5083837;28;20437;-59
2021/01/12 01:01:49;;;;;;;33.80;11.23;;;18.20;26.00;;;;;;5063764;28;20104;-55
2021/01/12 01:04:16;;;;;;;34.03;11.35;;;18.00;26.20;;;;;;5080776;28;20073;-56
2021/01/12 01:06:44;;;;;;;31.35;13.27;;;17.80;26.30;;;;;;5081906;28;20069;-58
2021/01/12 01:09:12;;;;;;;41.28;13.70;;;17.80;26.10;;;;;;5083426;28;20406;-59
2021/01/12 01:11:44;;;;;;;35.05;12.40;;;17.70;26.70;;;;;;5084032;28;20073;-59
2021/01/12 01:14:10;;;;;;;41.63;11.43;;;17.60;27.20;;;;;;5085820;28;20108;-60
2021/01/12 01:16:38;;;;;;;45.60;11.85;;;17.50;26.70;;;;;;5080640;28;20084;-61
2021/01/12 01:19:06;;;;;;;32.63;11.20;;;17.40;27.20;;;;;;5081287;28;20077;-60
2021/01/12 01:21:33;;;;;;;34.70;10.70;;;17.30;26.70;;;;;;5084503;28;20428;-60
2021/01/12 01:24:00;;;;;;;45.80;11.00;;;17.30;27.50;;;;;;5079396;28;20081;-59
2021/01/12 01:26:27;;;;;;;37.60;11.18;;;17.20;27.50;;;;;;5081787;28;20556;-59
2021/01/12 01:28:54;;;;;;;43.00;12.07;;;17.10;27.60;;;;;;5085029;28;20139;-58
2021/01/12 01:31:21;;;;;;;38.13;12.45;;;17.00;27.90;;;;;;5077940;28;20120;-60
2021/01/12 01:33:48;;;;;;;32.78;12.73;;;16.90;28.30;;;;;;5077915;28;20104;-59
2021/01/12 01:36:15;;;;;;;45.85;12.93;;;16.70;28.60;;;;;;5090920;28;20556;-59
2021/01/12 01:38:42;;;;;;;39.60;13.70;;;16.60;29.20;;;;;;5088800;28;20068;-56
2021/01/12 01:41:10;;;;;;;48.30;14.05;;;16.50;29.30;;;;;;5083066;28;20096;-62
2021/01/12 01:43:38;;;;;;;47.85;13.73;;;16.40;30.00;;;;;;5096520;28;24081;-58
2021/01/12 01:46:06;;;;;;;43.20;12.90;;;16.30;30.00;;;;;;5096290;28;20091;-59
2021/01/12 01:48:34;;;;;;;47.90;12.80;;;16.30;30.50;;;;;;5098347;28;20064;-58
2021/01/12 01:51:02;;;;;;;50.28;13.32;;;16.20;30.90;;;;;;5092393;28;20155;-58
2021/01/12 01:53:33;;;;;;;44.63;13.00;;;16.10;31.20;;;;;;5096699;28;20188;-57
2021/01/12 01:56:04;;;;;;;43.22;12.35;;;16.00;31.30;;;;;;5094319;28;20141;-59
2021/01/12 01:58:31;;;;;;;53.85;14.25;;;16.00;31.30;;;;;;5093649;28;20079;-57
2021/01/12 02:00:57;;;;;;;;;;;15.80;30.60;;;;;;5067609;28;20131;-58
2021/01/12 02:03:49;;;;;;;48.17;13.93;;;15.80;31.20;;;;;;5094685;28;19961;-57
2021/01/12 02:06:22;;;;;;;73.60;16.08;;;15.70;31.20;;;;;;5060865;28;20084;-60
2021/01/12 02:09:10;;;;;;;61.30;15.82;;;15.60;31.30;;;;;;5097712;28;20609;-58
2021/01/12 02:11:40;;;;;;;;;;;15.50;32.10;;;;;;5083979;28;20077;-58
2021/01/12 02:14:13;;;;;;;74.38;17.20;;;15.40;31.80;;;;;;5094157;28;20055;-60
2021/01/12 02:16:41;;;;;;;56.72;15.75;;;15.30;31.00;;;;;;5092531;28;20483;-58
2021/01/12 02:19:11;;;;;;;58.30;16.25;;;15.30;31.10;;;;;;5095964;28;20083;-59
2021/01/12 02:21:47;;;;;;;55.63;17.15;;;15.20;31.20;;;;;;5092544;28;20116;-61
2021/01/12 02:24:14;;;;;;;67.87;15.87;;;15.20;31.60;;;;;;5091353;28;20551;-59
2021/01/12 02:26:40;;;;;;;58.53;17.00;;;15.10;31.40;;;;;;5094811;28;20127;-59
2021/01/12 02:29:07;;;;;;;;;;;15.00;31.80;;;;;;5096138;28;20193;-60
2021/01/12 02:31:33;;;;;;;56.63;16.35;;;15.00;32.50;;;;;;5094761;28;21047;-60
2021/01/12 02:34:04;;;;;;;62.63;16.45;;;14.90;32.50;;;;;;5103143;28;20114;-59
2021/01/12 02:36:33;;;;;;;55.67;15.23;;;14.90;32.60;;;;;;5107817;28;20072;-58
2021/01/12 02:39:00;;;;;;;61.25;15.35;;;14.80;32.80;;;;;;5106866;28;20206;-59
2021/01/12 02:41:36;;;;;;;77.90;16.55;;;14.80;32.70;;;;;;5107634;28;20096;-57
2021/01/12 02:44:02;;;;;;;79.65;16.48;;;14.70;32.80;;;;;;5108180;28;20072;-58
2021/01/12 02:46:30;;;;;;;65.05;15.65;;;14.70;33.00;;;;;;5108136;28;20064;-60
2021/01/12 02:48:57;;;;;;;71.10;16.13;;;14.60;33.00;;;;;;5089336;28;20079;-59
2021/01/12 02:51:24;;;;;;;64.88;15.80;;;14.50;33.20;;;;;;5107284;28;20075;-64
2021/01/12 02:53:50;;;;;;;64.97;15.20;;;14.50;33.60;;;;;;5108402;28;20082;-60
2021/01/12 02:56:25;;;;;;;;;;;14.40;33.00;;;;;;5107119;28;20080;-58
2021/01/12 02:58:52;;;;;;;73.18;16.92;;;14.40;32.50;;;;;;5108506;28;20013;-59
2021/01/12 03:01:20;;;;;;;70.40;18.58;;;14.30;32.60;;;;;;5109217;28;20096;-59
2021/01/12 03:03:47;;;;;;;68.10;17.15;;;14.30;32.80;;;;;;5105860;28;20520;-59
2021/01/12 03:06:13;;;;;;;;;;;14.30;32.60;;;;;;5107420;28;20087;-60
2021/01/12 03:08:41;;;;;;;77.88;17.17;;;14.20;33.10;;;;;;5090418;28;20450;-60
2021/01/12 03:11:07;;;;;;;95.25;18.75;;;14.20;33.30;;;;;;5092458;28;20084;-60
2021/01/12 03:13:33;;;;;;;;;;;14.20;33.00;;;;;;5090967;28;20072;-58
2021/01/12 03:16:00;;;;;;;89.88;15.13;;;14.20;33.70;;;;;;5112020;28;19960;-59
2021/01/12 03:18:26;;;;;;;;;;;14.10;33.30;;;;;;5110283;28;20076;-60
2021/01/12 03:20:52;;;;;;;72.65;15.77;;;14.10;33.60;;;;;;5111471;28;20053;-60
2021/01/12 03:23:19;;;;;;;;;;;14.00;33.50;;;;;;5112887;28;20111;-59
2021/01/12 03:25:45;;;;;;;82.18;13.65;;;14.00;34.40;;;;;;5092452;28;19956;-58
2021/01/12 03:28:11;;;;;;;;;;;13.90;35.10;;;;;;5113770;28;20091;-59
2021/01/12 03:30:38;;;;;;;68.18;13.50;;;13.90;35.40;;;;;;5112727;27;20056;-59
2021/01/12 03:33:04;;;;;;;66.82;13.25;;;13.80;35.30;;;;;;5111185;28;20119;-60
2021/01/12 03:35:31;;;;;;;57.65;14.57;;;13.70;34.90;;;;;;5113348;28;20126;-58
2021/01/12 03:37:57;;;;;;;;;;;13.80;35.30;;;;;;5112053;28;20557;-59
2021/01/12 03:40:24;;;;;;;71.15;13.68;;;13.70;35.90;;;;;;5110715;27;19998;-59
2021/01/12 03:42:50;;;;;;;70.32;14.63;;;13.70;36.00;;;;;;5109164;28;20104;-59
2021/01/12 03:45:17;;;;;;;64.10;12.95;;;13.70;35.90;;;;;;5110025;28;20146;-60
2021/01/12 03:47:43;;;;;;;;;;;13.70;35.90;;;;;;5110069;28;20080;-58
2021/01/12 03:50:10;;;;;;;68.65;16.38;;;13.50;36.10;;;;;;5109975;28;20075;-57
2021/01/12 03:52:36;;;;;;;;;;;13.40;36.10;;;;;;5110441;28;20351;-57
2021/01/12 03:55:05;;;;;;;79.75;15.38;;;13.40;36.10;;;;;;5111467;28;20344;-57
2021/01/12 03:57:31;;;;;;;91.78;16.45;;;13.30;35.80;;;;;;5110080;28;20070;-57
2021/01/12 03:59:58;;;;;;;;;;;13.30;36.10;;;;;;5111935;28;20081;-59
2021/01/12 04:02:24;;;;;;;94.25;16.23;;;13.40;36.60;;;;;;5111173;28;19968;-58
2021/01/12 04:04:50;;;;;;;;;;;13.20;36.80;;;;;;5112487;28;20126;-60
2021/01/12 04:07:17;;;;;;;104.80;16.65;;;13.20;37.00;;;;;;5110692;28;19960;-59
2021/01/12 04:09:44;;;;;;;85.35;17.77;;;13.10;36.70;;;;;;5090245;28;20138;-60
2021/01/12 04:12:10;;;;;;;92.00;18.08;;;13.10;37.00;;;;;;5111247;28;20102;-58
2021/01/12 04:14:36;;;;;;;;;;;13.10;36.40;;;;;;5111843;28;20089;-57
2021/01/12 04:17:03;;;;;;;76.10;17.90;;;13.00;36.20;;;;;;5109875;28;20376;-59
2021/01/12 04:19:29;;;;;;;;;;;13.00;36.10;;;;;;5091967;28;20069;-59
2021/01/12 04:21:56;;;;;;;94.35;21.20;;;13.00;36.40;;;;;;5109030;28;20002;-57
2021/01/12 04:24:22;;;;;;;93.30;20.33;;;12.90;37.30;;;;;;5111037;28;20141;-59
2021/01/12 04:26:49;;;;;;;102.30;21.20;;;12.90;37.20;;;;;;5112092;27;20072;-59
2021/01/12 04:29:15;;;;;;;;;;;12.90;36.70;;;;;;5111534;28;20072;-59
2021/01/12 04:31:41;;;;;;;86.15;21.30;;;12.90;36.60;;;;;;5110378;28;19963;-60
2021/01/12 04:34:08;;;;;;;;;;;12.90;36.90;;;;;;5111457;28;20107;-60
2021/01/12 04:36:34;;;;;;;97.60;21.00;;;12.80;37.10;;;;;;5110055;28;20457;-59
2021/01/12 04:39:01;;;;;;;;;;;12.80;37.90;;;;;;5112059;28;20095;-59
2021/01/12 04:41:28;;;;;;;88.22;21.25;;;12.80;38.20;;;;;;5091384;28;20015;-57
2021/01/12 04:43:54;;;;;;;117.35;21.95;;;12.80;37.90;;;;;;5110301;28;20117;-59
2021/01/12 04:46:20;;;;;;;;;;;12.70;38.60;;;;;;5112307;28;20122;-60
2021/01/12 04:48:49;;;;;;;98.32;22.58;;;12.60;38.40;;;;;;5111192;28;20051;-58
2021/01/12 04:51:16;;;;;;;100.75;22.55;;;12.60;38.40;;;;;;5112769;28;20177;-59
2021/01/12 04:53:48;;;;;;;114.38;23.80;;;12.50;38.50;;;;;;5109214;28;20072;-61
2021/01/12 04:56:19;;;;;;;103.85;28.98;;;12.50;38.90;;;;;;5110659;28;20092;-56
2021/01/12 04:58:48;;;;;;;104.80;29.30;;;12.40;39.10;;;;;;5109648;28;20072;-59
2021/01/12 05:01:19;;;;;;;113.70;30.50;;;12.30;38.80;;;;;;5111570;28;20107;-56
2021/01/12 05:03:54;;;;;;;124.93;30.67;;;12.30;38.90;;;;;;5090781;28;20068;-56
2021/01/12 05:06:24;;;;;;;116.05;28.55;;;12.20;39.40;;;;;;5106188;28;20430;-56
2021/01/12 05:08:55;;;;;;;128.30;29.45;;;12.30;38.70;;;;;;5109564;28;20069;-54
2021/01/12 05:11:27;;;;;;;128.57;28.90;;;12.30;39.00;;;;;;5110654;28;20076;-56
2021/01/12 05:14:02;;;;;;;112.55;28.85;;;12.20;38.60;;;;;;5109258;28;20072;-57
2021/01/12 05:16:29;;;;;;;114.03;29.70;;;12.10;38.80;;;;;;5109109;28;20075;-60
2021/01/12 05:18:56;;;;;;;107.22;29.50;;;12.10;39.20;;;;;;5089552;28;20068;-59
2021/01/12 05:21:26;;;;;;;135.90;31.23;;;12.20;39.30;;;;;;5109694;28;20191;-60
2021/01/12 05:24:08;;;;;;;140.48;33.15;;;12.10;39.50;;;;;;5110497;28;20080;-57
2021/01/12 05:26:38;;;;;;;147.63;35.00;;;12.00;40.40;;;;;;5108818;28;20072;-62
2021/01/12 05:29:07;;;;;;;128.18;34.42;;;12.00;39.80;;;;;;5107116;28;20510;-57
2021/01/12 05:31:35;;;;;;;128.57;32.70;;;12.00;39.70;;;;;;5110086;28;20076;-58
2021/01/12 05:34:10;;;;;;;134.20;35.22;;;12.00;40.20;;;;;;5107918;28;20104;-55
2021/01/12 05:36:50;;;;;;;143.07;36.38;;;11.90;40.00;;;;;;5108851;28;20174;-54
2021/01/12 05:39:18;;;;;;;164.52;37.70;;;11.80;39.80;;;;;;5107930;27;20068;-57
2021/01/12 05:41:50;;;;;;;139.20;39.08;;;11.70;40.10;;;;;;5108352;28;20088;-56
2021/01/12 05:44:18;;;;;;;150.90;36.92;;;11.80;40.20;;;;;;5109933;28;20512;-57
2021/01/12 05:46:47;;;;;;;129.77;35.83;;;11.80;39.70;;;;;;5109000;28;20151;-63
2021/01/12 05:49:17;;;;;;;128.75;33.55;;;11.70;40.50;;;;;;5091797;28;20064;-56
2021/01/12 05:51:46;;;;;;;122.15;34.20;;;11.70;40.30;;;;;;5089286;28;20132;-57
2021/01/12 05:54:36;;;;;;;127.50;33.67;;;11.60;40.70;;;;;;5107901;28;20560;-59
2021/01/12 05:57:07;;;;;;;127.68;34.03;;;11.60;40.80;;;;;;5107567;28;20098;-57
2021/01/12 05:59:36;;;;;;;119.35;35.15;;;11.50;41.00;;;;;;5107634;28;20072;-57
2021/01/12 06:02:09;;;;;;;114.43;35.22;;;11.50;41.50;;;;;;5106859;28;20096;-57
2021/01/12 06:04:37;;;;;;;108.93;31.63;;;11.50;41.90;;;;;;5086300;28;20068;-58
2021/01/12 06:07:04;;;;;;;119.93;32.42;;;11.50;42.60;;;;;;5107464;28;20466;-58
2021/01/12 06:09:31;;;;;;;132.90;31.50;;;11.50;42.60;;;;;;5107432;28;20142;-57
2021/01/12 06:11:57;;;;;;;;;;;11.50;42.10;;;;;;5110000;28;20099;-59
2021/01/12 06:14:26;;;;;;;125.05;31.48;;;11.50;41.90;;;;;;5108976;28;19981;-58
2021/01/12 06:16:54;;;;;;;136.30;32.83;;;11.40;41.90;;;;;;5108144;28;20131;-59
2021/01/12 06:19:36;;;;;;;130.48;29.40;;;11.40;42.40;;;;;;5108243;28;20083;-54
2021/01/12 06:22:23;;;;;;;128.30;29.42;;;11.30;41.20;;;;;;5107213;28;20096;-60
2021/01/12 06:24:54;;;;;;;99.65;28.60;;;11.30;41.30;;;;;;5107242;28;20079;-55
2021/01/12 06:27:34;;;;;;;111.03;29.65;;;11.30;41.70;;;;;;5109101;28;20566;-57
2021/01/12 06:30:08;;;;;;;113.45;30.48;;;11.10;41.50;;;;;;5089091;28;20554;-59
2021/01/12 06:32:36;;;;;;;119.25;29.45;;;11.20;41.90;;;;;;5089137;28;20080;-56
2021/01/12 06:35:10;;;;;;;112.88;29.67;;;11.10;42.20;;;;;;5110617;28;20108;-58
2021/01/12 06:37:42;;;;;;;115.40;32.08;;;11.10;42.20;;;;;;5110695;28;20093;-58
2021/01/12 06:40:12;;;;;;;121.25;30.90;;;11.10;42.60;;;;;;5109968;28;20071;-57
2021/01/12 06:42:40;;;;;;;119.53;30.35;;;11.10;42.30;;;;;;5090361;28;20653;-60
2021/01/12 06:45:08;;;;;;;112.22;30.80;;;11.00;42.00;;;;;;5107817;28;20155;-57
2021/01/12 06:47:36;;;;;;;136.65;29.63;;;11.10;42.50;;;;;;5108556;28;20651;-59
2021/01/12 06:50:18;;;;;;;105.55;28.70;;;11.00;43.10;;;;;;5109044;28;20190;-57
2021/01/12 06:52:47;;;;;;;102.90;28.95;;;11.00;43.00;;;;;;5089197;28;20510;-58
2021/01/12 06:55:18;;;;;;;122.72;32.03;;;10.90;42.70;;;;;;5108670;28;20068;-61
2021/01/12 06:57:49;;;;;;;120.15;34.50;;;10.70;42.60;;;;;;5107762;28;20535;-60
2021/01/12 07:00:20;;;;;;;134.32;35.65;;;10.70;43.30;;;;;;5107822;28;20087;-56
2021/01/12 07:02:59;;;;;;;120.55;34.10;;;10.80;43.60;;;;;;5108178;28;20080;-57
2021/01/12 07:05:47;;;;;;;124.10;34.35;;;10.80;43.40;;;;;;5109405;28;20137;-58
2021/01/12 07:08:14;;;;;;;111.47;31.48;;;10.70;43.10;;;;;;5109349;28;20068;-60
2021/01/12 07:10:42;;;;;;;;;;;10.70;42.80;;;;;;5108132;28;20547;-58
2021/01/12 07:13:09;;;;;;;105.13;29.83;;;10.60;42.70;;;;;;5108574;28;19976;-59
2021/01/12 07:15:42;;;;;;;;;;;10.60;43.00;;;;;;5108761;28;20064;-58
2021/01/12 07:18:09;;;;;;;109.90;27.75;;;10.60;43.30;;;;;;5107117;28;20440;-58
2021/01/12 07:20:38;;;;;;;106.15;28.27;;;10.60;43.30;;;;;;5108062;28;20096;-57
2021/01/12 07:23:06;;;;;;;102.28;29.45;;;10.70;42.90;;;;;;5105703;28;20148;-57
2021/01/12 07:25:43;;;;;;;109.32;28.92;;;10.70;42.80;;;;;;5107889;28;20513;-65
2021/01/12 07:28:17;;;;;;;109.63;28.20;;;10.60;42.30;;;;;;5110392;28;20222;-58
2021/01/12 07:30:53;;;;;;;96.40;26.58;;;10.60;42.30;;;;;;5108842;28;20436;-59
2021/01/12 07:33:24;;;;;;;95.88;27.13;;;10.60;42.70;;;;;;5100196;28;20109;-57
2021/01/12 07:35:53;;;;;;;98.72;26.50;;;10.60;42.90;;;;;;5051883;28;20076;-59
2021/01/12 07:38:25;;;;;;;98.68;26.35;;;10.60;42.50;;;;;;5085280;28;20077;-57
2021/01/12 07:40:53;;;;;;;88.68;25.75;;;10.50;42.80;;;;;;5086296;28;20150;-57
2021/01/12 07:43:21;;;;;;;95.97;26.88;;;10.50;42.80;;;;;;5086096;28;20068;-57
2021/01/12 07:45:53;;;;;;;104.50;27.00;;;10.50;43.00;;;;;;5087337;28;20130;-60
2021/01/12 07:48:20;;;;;;;94.93;26.10;;;10.40;43.00;;;;;;5088641;28;20073;-57
2021/01/12 07:50:50;;;;;;;114.32;28.77;;;10.50;43.00;;;;;;5085288;28;20100;-59
2021/01/12 07:53:17;;;;;;;101.68;29.08;;;10.50;43.20;;;;;;5083125;28;20084;-55
2021/01/12 07:55:46;;;;;;;95.13;26.10;;;10.40;43.20;;;;;;5076188;28;20073;-58
2021/01/12 07:58:14;;;;;;;95.22;26.73;;;10.50;43.50;;;;;;5062324;28;20081;-57
2021/01/12 08:00:42;;;;;;;86.07;28.20;;;10.50;43.80;;;;;;5086791;28;20627;-59
2021/01/12 08:03:09;;;;;;;87.25;26.35;;;10.50;43.60;;;;;;5081755;28;20091;-57
2021/01/12 08:05:35;;;;;;;84.97;26.73;;;10.40;43.80;;;;;;5078816;28;20073;-58
2021/01/12 08:08:07;;;;;;;96.78;27.15;;;10.30;44.20;;;;;;5081436;28;20134;-58
2021/01/12 08:10:36;;;;;;;96.32;26.50;;;10.20;44.30;;;;;;5084656;28;20134;-59
2021/01/12 08:13:15;;;;;;;81.22;26.70;;;10.20;44.40;;;;;;5089274;28;20072;-56
2021/01/12 08:15:43;;;;;;;101.60;26.65;;;10.20;44.60;;;;;;5089961;28;20073;-57
2021/01/12 08:18:20;;;;;;;92.68;25.65;;;10.20;44.60;;;;;;5072855;28;20163;-59
2021/01/12 08:20:47;;;;;;;84.10;26.50;;;10.20;44.90;;;;;;5089979;28;20564;-58
2021/01/12 08:23:17;;;;;;;101.68;27.25;;;10.20;44.80;;;;;;5088937;28;20081;-56
2021/01/12 08:25:44;;;;;;;92.55;27.17;;;10.20;44.40;;;;;;5073997;28;20544;-59
2021/01/12 08:28:11;;;;;;;88.55;26.83;;;10.20;44.30;;;;;;5089657;28;20087;-59
2021/01/12 08:30:37;;;;;;;;;;;10.10;44.30;;;;;;5089368;28;20101;-58
2021/01/12 08:33:09;;;;;;;73.90;24.47;;;9.90;44.40;;;;;;5090669;28;20095;-58
2021/01/12 08:35:48;;;;;;;78.53;24.30;;;9.80;44.50;;;;;;5064319;28;20080;-56
2021/01/12 08:38:15;;;;;;;72.00;23.52;;;9.80;44.80;;;;;;5082595;28;20080;-59
2021/01/12 08:40:46;;;;;;;86.90;24.10;;;9.90;44.80;;;;;;5087086;28;20156;-57
2021/01/12 08:43:18;;;;;;;64.88;23.25;;;9.90;44.80;;;;;;5083551;28;20151;-54
2021/01/12 08:45:46;;;;;;;84.75;23.58;;;9.90;45.20;;;;;;5065717;28;20085;-56
2021/01/12 08:48:15;;;;;;;82.57;23.30;;;9.80;44.50;;;;;;5066540;28;20097;-59
2021/01/12 08:50:42;;;;;;;68.45;20.15;;;9.80;44.20;;;;;;5095470;28;20077;-59
2021/01/12 08:53:10;;;;;;;67.97;19.90;;;9.80;43.40;;;;;;5068925;28;20530;-57
2021/01/12 08:55:37;;;;;;;62.13;19.25;;;9.70;43.10;;;;;;5084023;28;21140;-56
2021/01/12 08:58:06;;;;;;;50.42;17.88;;;9.70;42.70;;;;;;5089005;28;20079;-57
2021/01/12 09:00:36;;;;;;;45.20;15.38;;;9.70;42.70;;;;;;5083010;28;20089;-59
2021/01/12 09:03:04;;;;;;;41.40;12.68;;;9.70;41.40;;;;;;5086500;28;20080;-58
2021/01/12 09:05:38;;;;;;;41.78;11.32;;;9.80;40.40;;;;;;5085055;28;20085;-59
2021/01/12 09:08:08;;;;;;;49.53;11.73;;;9.80;39.40;;;;;;5083933;28;20091;-59
2021/01/12 09:10:38;;;;;;;26.08;9.55;;;9.80;39.00;;;;;;5086045;28;20075;-59
2021/01/12 09:13:05;;;;;;;26.52;8.02;;;9.70;38.00;;;;;;5067956;28;20200;-58
2021/01/12 09:15:34;;;;;;;16.90;5.75;;;9.70;37.80;;;;;;5085919;28;20127;-60
2021/01/12 09:18:20;;;;;;;12.32;4.97;;;9.70;36.50;;;;;;5087632;28;20084;-59
2021/01/12 09:20:57;;;;;;;10.27;3.85;;;9.80;36.10;;;;;;5067929;28;20175;-58
2021/01/12 09:23:25;;;;;;;13.60;3.20;;;9.80;35.50;;;;;;5085444;28;20176;-57
2021/01/12 09:25:54;;;;;;;9.77;2.95;;;9.90;35.50;;;;;;5066566;28;20134;-58
2021/01/12 09:28:26;;;;;;;11.88;3.05;;;9.90;35.40;;;;;;5065451;28;20080;-58
2021/01/12 09:31:10;;;;;;;6.07;2.45;;;9.90;35.50;;;;;;5081228;28;20099;-58
2021/01/12 09:33:39;;;;;;;9.90;2.67;;;10.00;35.70;;;;;;5082248;28;20101;-59
2021/01/12 09:36:11;;;;;;;7.25;2.75;;;10.00;36.00;;;;;;5070425;28;20081;-58
2021/01/12 09:38:52;;;;;;;7.20;3.05;;;10.00;36.30;;;;;;5069679;28;20122;-56
2021/01/12 09:41:28;;;;;;;9.80;3.00;;;10.10;35.80;;;;;;5088338;28;20179;-59
2021/01/12 09:43:55;;;;;;;12.57;2.92;;;10.10;36.30;;;;;;5089693;28;20107;-59
2021/01/12 09:46:23;;;;;;;6.07;3.22;;;10.10;36.60;;;;;;5072467;28;20103;-57
2021/01/12 09:48:51;;;;;;;5.93;2.70;;;10.10;37.80;;;;;;5088350;28;20072;-59
2021/01/12 09:51:17;;;;;;;10.45;2.97;;;10.00;38.80;;;;;;5088430;28;20130;-57
2021/01/12 09:53:51;;;;;;;19.70;3.25;;;10.00;38.10;;;;;;5089607;28;20476;-58
2021/01/12 09:56:20;;;;;;;9.10;3.30;;;10.00;37.40;;;;;;5073468;28;20093;-59
2021/01/12 09:58:51;;;;;;;8.13;2.45;;;9.90;37.80;;;;;;5089519;28;20073;-57
2021/01/12 10:01:19;;;;;;;8.38;2.63;;;9.90;37.80;;;;;;5072402;28;20437;-60
2021/01/12 10:03:47;;;;;;;9.43;3.47;;;9.90;38.50;;;;;;5091704;28;20077;-59
2021/01/12 10:06:18;;;;;;;11.82;3.30;;;9.80;38.30;;;;;;5088136;28;20594;-59
2021/01/12 10:08:46;;;;;;;17.42;3.33;;;9.70;38.00;;;;;;5091181;28;20140;-59
2021/01/12 10:11:14;;;;;;;15.13;5.07;;;9.60;38.30;;;;;;5087545;28;20551;-59
2021/01/12 10:13:45;;;;;;;17.65;5.75;;;9.60;38.50;;;;;;5090391;28;20077;-59
2021/01/12 10:16:19;;;;;;;16.85;5.55;;;9.60;39.40;;;;;;5090466;28;20073;-59
2021/01/12 10:18:46;;;;;;;17.55;4.43;;;9.60;39.90;;;;;;5089158;28;20092;-56
2021/01/12 10:21:12;;;;;;;;;;;9.60;40.20;;;;;;5071508;28;20112;-59
2021/01/12 10:23:38;;;;;;;13.80;3.53;;;9.50;40.60;;;;;;5071108;28;19960;-59
2021/01/12 10:26:05;;;;;;;10.18;4.53;;;9.50;40.60;;;;;;5090101;28;20139;-57
2021/01/12 10:28:32;;;;;;;15.45;3.92;;;9.40;40.30;;;;;;5088034;28;20077;-59
2021/01/12 10:30:58;;;;;;;17.98;5.18;;;9.30;40.30;;;;;;5090298;28;20069;-58
2021/01/12 10:33:24;;;;;;;;;;;9.30;39.90;;;;;;5098808;28;20118;-61
2021/01/12 10:35:51;;;;;;;14.75;5.25;;;9.30;40.00;;;;;;5107475;28;19960;-58
2021/01/12 10:38:17;;;;;;;;;;;9.20;39.90;;;;;;5093113;28;20077;-59
2021/01/12 10:40:43;;;;;;;7.30;3.75;;;9.20;40.40;;;;;;5097457;28;19988;-58
2021/01/12 10:43:10;;;;;;;9.88;3.90;;;9.20;40.80;;;;;;5100559;28;20575;-57
2021/01/12 10:45:37;;;;;;;11.63;3.75;;;9.20;40.90;;;;;;5107495;28;20112;-58
2021/01/12 10:48:06;;;;;;;8.93;3.97;;;9.10;41.30;;;;;;5102579;28;20214;-59
2021/01/12 10:50:33;;;;;;;7.05;2.90;;;9.20;41.00;;;;;;5108104;28;20497;-58
2021/01/12 10:52:59;;;;;;;9.77;3.47;;;9.10;40.20;;;;;;5107126;28;20072;-57
2021/01/12 10:55:25;;;;;;;;;;;9.10;39.80;;;;;;5106467;28;20064;-58
2021/01/12 10:57:52;;;;;;;12.90;3.05;;;9.10;39.40;;;;;;5104585;28;19989;-57
2021/01/12 11:00:19;;;;;;;;;;;9.10;39.10;;;;;;5099975;28;20089;-57
2021/01/12 11:02:46;;;;;;;10.18;3.58;;;9.10;39.10;;;;;;5105891;28;19966;-57
2021/01/12 11:05:13;;;;;;;12.10;3.17;;;9.10;37.70;;;;;;5077556;28;20617;-59
2021/01/12 11:07:41;;;;;;;15.13;3.22;;;9.20;37.20;;;;;;5097002;28;20076;-58
2021/01/12 11:10:09;;;;;;;10.35;3.17;;;9.20;36.30;;;;;;5107980;28;20076;-58
2021/01/12 11:12:39;;;;;;;11.80;3.08;;;9.20;36.20;;;;;;5090881;28;20072;-58
2021/01/12 11:15:07;;;;;;;12.50;2.88;;;9.30;36.00;;;;;;5100229;28;20072;-62
2021/01/12 11:17:34;;;;;;;15.30;3.08;;;9.30;36.00;;;;;;5107713;28;20072;-59
2021/01/12 11:20:04;;;;;;;10.27;3.13;;;9.30;36.60;;;;;;5104343;28;20092;-59
2021/01/12 11:22:31;;;;;;;12.70;3.10;;;9.30;36.20;;;;;;5108695;28;20100;-56
2021/01/12 11:25:03;;;;;;;15.57;3.47;;;9.20;36.10;;;;;;5106785;28;20072;-58
2021/01/12 11:27:30;;;;;;;13.88;3.20;;;9.20;36.40;;;;;;5106245;28;20072;-58
2021/01/12 11:29:57;;;;;;;17.25;3.70;;;9.20;36.20;;;;;;5107538;28;20533;-58
2021/01/12 11:32:24;;;;;;;18.27;3.83;;;9.30;36.90;;;;;;5108167;28;20150;-57
2021/01/12 11:34:51;;;;;;;13.25;3.35;;;9.20;36.90;;;;;;5092062;28;20135;-58
2021/01/12 11:37:18;;;;;;;10.85;3.53;;;9.20;37.40;;;;;;5109334;28;20081;-57
2021/01/12 11:39:45;;;;;;;20.92;4.28;;;9.20;37.30;;;;;;5099519;28;20077;-57
2021/01/12 11:42:13;;;;;;;22.92;3.78;;;9.30;37.10;;;;;;5103259;28;20097;-58
2021/01/12 11:44:41;;;;;;;9.98;3.60;;;9.20;37.50;;;;;;5109454;28;20100;-57
2021/01/12 11:47:08;;;;;;;16.85;3.90;;;9.30;37.70;;;;;;5109678;28;20082;-58
2021/01/12 11:49:35;;;;;;;16.65;3.63;;;9.20;38.10;;;;;;5106051;28;20088;-57
2021/01/12 11:52:06;;;;;;;13.48;3.45;;;9.10;38.90;;;;;;5094654;28;20076;-58
2021/01/12 11:54:33;;;;;;;15.02;3.70;;;9.00;38.60;;;;;;5100942;28;20473;-55
2021/01/12 11:57:00;;;;;;;12.88;3.40;;;9.00;38.40;;;;;;5103292;28;20084;-58
2021/01/12 11:59:30;;;;;;;15.40;3.50;;;9.10;38.60;;;;;;5108537;28;20160;-62
2021/01/12 12:01:57;;;;;;;14.60;3.75;;;9.00;38.60;;;;;;5111678;28;20179;-56
2021/01/12 12:04:25;;;;;;;10.07;3.42;;;9.00;38.50;;;;;;5111607;28;20075;-53
2021/01/12 12:07:02;;;;;;;7.90;3.60;;;8.90;38.60;;;;;;5111474;28;20167;-58
2021/01/12 12:09:31;;;;;;;12.38;3.75;;;8.90;38.70;;;;;;5111581;28;20145;-57
2021/01/12 12:11:58;;;;;;;11.30;3.20;;;8.70;39.90;;;;;;5111806;28;20158;-58
2021/01/12 12:14:25;;;;;;;13.88;3.55;;;8.70;40.60;;;;;;5102561;28;20107;-56
2021/01/12 12:16:54;;;;;;;12.98;3.92;;;8.70;40.20;;;;;;5106657;28;20069;-54
2021/01/12 12:19:21;;;;;;;10.38;3.25;;;8.70;40.10;;;;;;5102712;27;20072;-59
2021/01/12 12:21:51;;;;;;;17.92;4.30;;;8.60;40.50;;;;;;5106686;28;20209;-54
2021/01/12 12:24:20;;;;;;;14.93;4.15;;;8.60;40.70;;;;;;5111842;28;20076;-55
2021/01/12 12:26:47;;;;;;;15.95;3.65;;;8.60;40.30;;;;;;5110097;28;20072;-54
2021/01/12 12:29:14;;;;;;;9.25;3.53;;;8.50;40.30;;;;;;5092474;28;20068;-57
2021/01/12 12:31:41;;;;;;;13.02;3.72;;;8.50;40.30;;;;;;5102466;28;20076;-58
2021/01/12 12:34:09;;;;;;;17.25;3.50;;;8.40;40.70;;;;;;5107300;28;20116;-56
2021/01/12 12:36:35;;;;;;;13.50;3.65;;;8.40;40.70;;;;;;5090969;28;20076;-58
2021/01/12 12:39:03;;;;;;;11.75;3.50;;;8.50;40.80;;;;;;5110631;28;20068;-56
2021/01/12 12:41:33;;;;;;;16.65;4.20;;;8.40;40.60;;;;;;5100275;28;20099;-57
2021/01/12 12:44:00;;;;;;;15.90;3.75;;;8.30;41.00;;;;;;5108765;28;20102;-54
2021/01/12 12:46:27;;;;;;;13.15;3.80;;;8.30;41.30;;;;;;5109841;28;20159;-55
2021/01/12 12:48:54;;;;;;;11.80;4.35;;;8.30;41.30;;;;;;5099690;28;20076;-53